createdAt,value
2017-07-16T00:00:23.673Z,72.30
2017-07-16T00:02:51.264Z,72.30
2017-07-16T00:05:18.856Z,72.90
2017-07-16T00:07:46.527Z,72.30
2017-07-16T00:10:14.097Z,72.80
2017-07-16T00:12:41.680Z,72.40
2017-07-16T00:15:09.246Z,72.60
2017-07-16T00:17:36.820Z,73.00
2017-07-16T00:20:05.197Z,72.50
2017-07-16T00:22:33.544Z,73.50
2017-07-16T00:25:01.102Z,72.70
2017-07-16T00:27:28.694Z,72.60
2017-07-16T00:29:56.275Z,72.00
2017-07-16T00:32:23.879Z,72.70
2017-07-16T00:34:51.443Z,72.50
2017-07-16T00:37:19.005Z,73.10
2017-07-16T00:39:46.583Z,72.80
2017-07-16T00:42:14.137Z,72.90
2017-07-16T00:44:41.726Z,72.60
2017-07-16T00:47:10.055Z,73.20
2017-07-16T00:49:37.610Z,73.10
2017-07-16T00:52:05.247Z,73.20
2017-07-16T00:54:32.818Z,73.10
2017-07-16T00:57:00.418Z,73.20
2017-07-16T00:59:27.983Z,73.60
2017-07-16T01:01:55.567Z,73.70
2017-07-16T01:04:23.142Z,73.30
2017-07-16T01:06:50.713Z,72.80
2017-07-16T01:09:18.294Z,73.10
2017-07-16T01:11:45.885Z,72.80
2017-07-16T01:14:13.798Z,73.30
2017-07-16T01:16:41.376Z,73.20
2017-07-16T01:19:08.962Z,73.40
2017-07-16T01:21:36.508Z,73.40
2017-07-16T01:24:04.070Z,73.70
2017-07-16T01:26:31.661Z,73.40
2017-07-16T01:28:59.235Z,73.80
2017-07-16T01:31:26.807Z,73.80
2017-07-16T01:33:55.149Z,73.70
2017-07-16T01:36:22.712Z,73.70
2017-07-16T01:38:50.309Z,73.50
2017-07-16T01:41:17.871Z,73.40
2017-07-16T01:43:47.443Z,73.30
2017-07-16T01:46:15.042Z,73.30
2017-07-16T01:48:43.390Z,73.40
2017-07-16T01:51:10.982Z,73.10
2017-07-16T01:53:39.331Z,72.50
2017-07-16T01:56:06.931Z,72.50
2017-07-16T01:58:35.267Z,72.60
2017-07-16T02:01:02.855Z,72.60
2017-07-16T02:03:30.418Z,72.10
2017-07-16T02:05:58.836Z,72.30
2017-07-16T02:08:26.411Z,72.30
2017-07-16T02:10:53.991Z,71.80
2017-07-16T02:13:21.575Z,72.10
2017-07-16T02:15:49.152Z,72.30
2017-07-16T02:18:16.750Z,72.00
2017-07-16T02:20:44.611Z,71.80
2017-07-16T02:23:12.169Z,72.40
2017-07-16T02:25:39.822Z,71.50
2017-07-16T02:28:07.388Z,71.10
2017-07-16T02:30:35.002Z,70.40
2017-07-16T02:33:02.572Z,70.50
2017-07-16T02:35:30.142Z,70.30
2017-07-16T02:37:59.159Z,70.80
2017-07-16T02:40:26.723Z,70.80
2017-07-16T02:42:54.283Z,71.10
2017-07-16T02:45:21.874Z,71.30
2017-07-16T02:47:49.462Z,71.00
2017-07-16T02:50:17.010Z,70.90
2017-07-16T02:52:44.586Z,71.60
2017-07-16T02:55:12.161Z,71.40
2017-07-16T02:57:39.736Z,71.10
2017-07-16T03:00:07.364Z,71.10
2017-07-16T03:02:34.974Z,71.90
2017-07-16T03:05:02.535Z,72.40
2017-07-16T03:07:30.128Z,73.10
2017-07-16T03:09:57.710Z,72.60
2017-07-16T03:12:25.275Z,72.50
2017-07-16T03:14:52.863Z,72.80
2017-07-16T03:17:20.434Z,73.20
2017-07-16T03:19:47.994Z,72.50
2017-07-16T03:22:15.575Z,72.80
2017-07-16T03:24:43.244Z,73.10
2017-07-16T03:27:10.830Z,72.90
2017-07-16T03:29:39.115Z,73.80
2017-07-16T03:32:06.723Z,73.50
2017-07-16T03:34:34.367Z,73.30
2017-07-16T03:37:02.687Z,74.10
2017-07-16T03:39:30.275Z,74.00
2017-07-16T03:41:57.860Z,74.30
2017-07-16T03:44:26.219Z,75.20
2017-07-16T03:46:53.786Z,75.30
2017-07-16T03:49:21.353Z,75.10
2017-07-16T03:51:49.040Z,75.40
2017-07-16T03:54:16.599Z,74.80
2017-07-16T03:56:44.172Z,74.90
2017-07-16T03:59:11.757Z,75.40
2017-07-16T04:01:39.323Z,75.30
2017-07-16T04:04:06.909Z,75.70
2017-07-16T04:06:34.505Z,75.30
2017-07-16T04:09:02.063Z,75.70
2017-07-16T04:11:29.619Z,76.50
2017-07-16T04:13:57.972Z,76.10
2017-07-16T04:16:25.535Z,76.10
2017-07-16T04:18:53.109Z,76.70
2017-07-16T04:21:21.483Z,76.00
2017-07-16T04:23:49.026Z,75.30
2017-07-16T04:26:16.603Z,75.00
2017-07-16T04:28:44.199Z,75.70
2017-07-16T04:31:11.772Z,76.20
2017-07-16T04:33:39.339Z,76.30
2017-07-16T04:36:06.907Z,75.10
2017-07-16T04:38:34.497Z,75.20
2017-07-16T04:41:02.059Z,75.50
2017-07-16T04:43:29.620Z,76.00
2017-07-16T04:45:57.198Z,76.20
2017-07-16T04:48:25.542Z,77.00
2017-07-16T04:50:53.142Z,76.00
2017-07-16T04:53:21.502Z,75.90
2017-07-16T04:55:49.085Z,75.80
2017-07-16T04:58:17.403Z,77.20
2017-07-16T05:00:44.988Z,77.10
2017-07-16T05:03:12.639Z,77.20
2017-07-16T05:05:40.251Z,76.70
2017-07-16T05:08:08.596Z,76.70
2017-07-16T05:10:36.141Z,76.70
2017-07-16T05:13:03.721Z,76.60
2017-07-16T05:15:31.305Z,76.40
2017-07-16T05:17:58.918Z,76.70
2017-07-16T05:20:26.481Z,76.80
2017-07-16T05:22:54.062Z,77.40
2017-07-16T05:25:21.624Z,77.60
2017-07-16T05:27:49.233Z,78.30
2017-07-16T05:30:16.788Z,79.10
2017-07-16T05:32:44.372Z,79.30
2017-07-16T05:35:11.950Z,80.20
2017-07-16T05:37:39.531Z,80.20
2017-07-16T05:40:07.117Z,81.30
2017-07-16T05:42:35.454Z,81.30
2017-07-16T05:45:03.020Z,80.30
2017-07-16T05:47:30.608Z,79.90
2017-07-16T05:49:58.164Z,79.40
2017-07-16T05:52:25.755Z,79.40
2017-07-16T05:54:53.310Z,78.50
2017-07-16T05:57:20.917Z,79.40
2017-07-16T05:59:48.505Z,79.40
2017-07-16T06:02:16.074Z,79.00
2017-07-16T06:04:43.659Z,79.10
2017-07-16T06:07:11.226Z,79.70
2017-07-16T06:09:38.799Z,79.40
2017-07-16T06:12:06.408Z,79.00
2017-07-16T06:14:33.970Z,79.70
2017-07-16T06:17:01.531Z,80.00
2017-07-16T06:19:29.123Z,79.70
2017-07-16T06:21:56.707Z,79.30
2017-07-16T06:24:24.265Z,79.50
2017-07-16T06:26:51.846Z,79.60
2017-07-16T06:29:19.402Z,79.70
2017-07-16T06:31:46.963Z,78.50
2017-07-16T06:34:14.545Z,78.90
2017-07-16T06:36:42.101Z,78.20
2017-07-16T06:39:09.659Z,78.00
2017-07-16T06:41:37.250Z,78.70
2017-07-16T06:44:05.766Z,78.60
2017-07-16T06:46:33.423Z,78.20
2017-07-16T06:49:01.023Z,78.30
2017-07-16T06:51:28.615Z,78.30
2017-07-16T06:53:56.197Z,79.20
2017-07-16T06:56:23.891Z,79.40
2017-07-16T06:58:51.530Z,78.80
2017-07-16T07:01:19.095Z,79.70
2017-07-16T07:03:46.694Z,79.70
2017-07-16T07:06:14.281Z,78.80
2017-07-16T07:08:41.859Z,79.70
2017-07-16T07:11:09.487Z,80.10
2017-07-16T07:13:37.070Z,79.60
2017-07-16T07:16:05.124Z,78.90
2017-07-16T07:18:32.750Z,79.50
2017-07-16T07:21:00.493Z,79.70
2017-07-16T07:23:28.195Z,79.70
2017-07-16T07:25:55.768Z,79.20
2017-07-16T07:28:23.326Z,79.40
2017-07-16T07:30:50.984Z,78.80
2017-07-16T07:33:18.583Z,80.00
2017-07-16T07:35:46.978Z,78.90
2017-07-16T07:38:14.879Z,78.90
2017-07-16T07:40:42.478Z,78.30
2017-07-16T07:43:10.064Z,78.10
2017-07-16T07:45:38.427Z,78.70
2017-07-16T07:48:05.999Z,78.70
2017-07-16T07:50:33.591Z,77.90
2017-07-16T07:53:01.245Z,76.40
2017-07-16T07:55:28.822Z,76.80
2017-07-16T07:57:57.367Z,77.00
2017-07-16T08:00:24.990Z,77.40
2017-07-16T08:02:52.578Z,78.00
2017-07-16T08:05:20.152Z,77.90
2017-07-16T08:07:48.528Z,79.20
2017-07-16T08:10:16.161Z,78.80
2017-07-16T08:12:43.741Z,79.00
2017-07-16T08:15:11.320Z,78.80
2017-07-16T08:17:38.913Z,79.70
2017-07-16T08:20:06.533Z,80.40
2017-07-16T08:22:34.109Z,80.60
2017-07-16T08:25:01.659Z,79.30
2017-07-16T08:27:30.003Z,78.70
2017-07-16T08:29:57.600Z,78.60
2017-07-16T08:32:25.942Z,78.10
2017-07-16T08:34:53.518Z,78.10
2017-07-16T08:37:21.159Z,77.90
2017-07-16T08:39:48.718Z,77.70
2017-07-16T08:42:16.302Z,77.00
2017-07-16T08:44:43.887Z,77.00
2017-07-16T08:47:11.457Z,77.70
2017-07-16T08:49:39.047Z,76.60
2017-07-16T08:52:06.630Z,78.30
2017-07-16T08:54:34.198Z,78.30
2017-07-16T08:57:01.794Z,77.70
2017-07-16T08:59:30.131Z,76.60
2017-07-16T09:01:58.559Z,77.10
2017-07-16T09:04:26.137Z,76.90
2017-07-16T09:06:53.728Z,75.20
2017-07-16T09:09:21.334Z,74.40
2017-07-16T09:11:48.909Z,73.50
2017-07-16T09:14:16.478Z,72.00
2017-07-16T09:16:44.578Z,71.40
2017-07-16T09:19:12.219Z,70.80
2017-07-16T09:21:39.806Z,71.80
2017-07-16T09:24:07.387Z,72.00
2017-07-16T09:26:34.974Z,72.40
2017-07-16T09:29:02.547Z,72.90
2017-07-16T09:31:30.142Z,73.40
2017-07-16T09:33:57.771Z,72.60
2017-07-16T09:36:25.352Z,73.30
2017-07-16T09:38:52.948Z,74.10
2017-07-16T09:41:20.519Z,73.70
2017-07-16T09:43:48.141Z,74.00
2017-07-16T09:46:15.701Z,74.40
2017-07-16T09:48:43.287Z,71.30
2017-07-16T09:51:11.015Z,70.60
2017-07-16T09:53:38.593Z,70.80
2017-07-16T09:56:06.194Z,71.40
2017-07-16T09:58:33.787Z,71.00
2017-07-16T10:01:01.365Z,71.20
2017-07-16T10:03:29.388Z,71.40
2017-07-16T10:05:56.961Z,70.70
2017-07-16T10:08:24.585Z,69.70
2017-07-16T10:10:52.180Z,69.00
2017-07-16T10:13:19.746Z,67.80
2017-07-16T10:15:47.331Z,67.60
2017-07-16T10:18:14.916Z,67.40
2017-07-16T10:20:42.479Z,67.10
2017-07-16T10:23:10.054Z,65.20
2017-07-16T10:25:37.664Z,64.80
2017-07-16T10:28:05.231Z,64.50
2017-07-16T10:30:32.823Z,66.50
2017-07-16T10:33:00.423Z,65.40
2017-07-16T10:35:27.995Z,64.50
2017-07-16T10:37:55.559Z,64.00
2017-07-16T10:40:23.143Z,65.10
2017-07-16T10:42:50.696Z,66.00
2017-07-16T10:45:18.303Z,64.00
2017-07-16T10:47:45.879Z,64.40
2017-07-16T10:50:13.454Z,65.40
2017-07-16T10:52:41.030Z,66.40
2017-07-16T10:55:09.387Z,66.50
2017-07-16T10:57:37.429Z,67.40
2017-07-16T11:00:05.028Z,64.10
2017-07-16T11:02:32.633Z,64.60
2017-07-16T11:05:00.297Z,66.00
2017-07-16T11:07:27.950Z,67.30
2017-07-16T11:09:55.535Z,67.30
2017-07-16T11:12:23.150Z,66.50
2017-07-16T11:14:50.746Z,66.80
2017-07-16T11:17:18.302Z,66.00
2017-07-16T11:19:45.857Z,65.90
2017-07-16T11:22:13.470Z,64.90
2017-07-16T11:24:41.026Z,64.90
2017-07-16T11:27:08.647Z,64.50
2017-07-16T11:29:36.236Z,65.50
2017-07-16T11:32:03.832Z,67.10
2017-07-16T11:34:31.475Z,67.10
2017-07-16T11:36:59.074Z,67.60
2017-07-16T11:39:26.654Z,68.60
2017-07-16T11:41:55.079Z,70.50
2017-07-16T11:44:22.676Z,70.30
2017-07-16T11:46:51.121Z,71.00
2017-07-16T11:49:18.722Z,70.80
2017-07-16T11:51:47.059Z,70.10
2017-07-16T11:54:14.658Z,70.00
2017-07-16T11:56:43.024Z,69.20
2017-07-16T11:59:11.374Z,71.00
2017-07-16T12:01:38.979Z,70.10
2017-07-16T12:04:07.311Z,71.40
2017-07-16T12:06:34.885Z,71.20
2017-07-16T12:09:02.482Z,72.00
2017-07-16T12:11:30.798Z,72.50
2017-07-16T12:13:58.391Z,72.40
2017-07-16T12:16:25.976Z,71.10
2017-07-16T12:18:54.296Z,72.20
2017-07-16T12:21:21.882Z,72.20
2017-07-16T12:23:49.490Z,72.80
2017-07-16T12:26:17.106Z,73.00
2017-07-16T12:28:44.707Z,72.50
2017-07-16T12:31:13.056Z,72.30
2017-07-16T12:33:40.648Z,72.20
2017-07-16T12:36:08.229Z,73.00
2017-07-16T12:38:35.835Z,72.70
2017-07-16T12:41:03.408Z,71.80
2017-07-16T12:43:31.026Z,71.40
2017-07-16T12:45:58.626Z,70.60
2017-07-16T12:48:26.202Z,71.70
2017-07-16T12:50:53.834Z,71.50
2017-07-16T12:53:21.411Z,71.70
2017-07-16T12:55:48.974Z,72.00
2017-07-16T12:58:16.595Z,72.10
2017-07-16T13:00:44.250Z,72.10
2017-07-16T13:03:11.829Z,72.00
2017-07-16T13:05:39.444Z,71.50
2017-07-16T13:08:07.809Z,71.10
2017-07-16T13:10:36.128Z,70.40
2017-07-16T13:13:03.727Z,70.30
2017-07-16T13:15:31.335Z,69.10
2017-07-16T13:17:58.915Z,67.30
2017-07-16T13:20:26.493Z,67.10
2017-07-16T13:22:54.074Z,65.70
2017-07-16T13:25:21.656Z,67.50
2017-07-16T13:27:49.258Z,65.20
2017-07-16T13:30:16.950Z,66.60
2017-07-16T13:32:44.568Z,65.00
2017-07-16T13:35:12.145Z,61.90
2017-07-16T13:37:39.719Z,62.00
2017-07-16T13:40:07.309Z,62.20
2017-07-16T13:42:34.878Z,62.50
2017-07-16T13:45:02.515Z,63.60
2017-07-16T13:47:30.079Z,65.90
2017-07-16T13:49:57.691Z,61.70
2017-07-16T13:52:25.410Z,62.10
2017-07-16T13:54:52.997Z,62.90
2017-07-16T13:57:21.342Z,63.10
2017-07-16T13:59:49.014Z,62.00
2017-07-16T14:02:16.590Z,60.30
2017-07-16T14:04:44.170Z,60.70
2017-07-16T14:07:12.495Z,59.70
2017-07-16T14:09:40.236Z,59.60
2017-07-16T14:12:07.802Z,61.40
2017-07-16T14:14:35.395Z,62.20
2017-07-16T14:17:02.978Z,62.90
2017-07-16T14:19:30.570Z,61.90
2017-07-16T14:21:58.162Z,64.20
2017-07-16T14:24:25.733Z,66.10
2017-07-16T14:26:53.336Z,65.80
2017-07-16T14:29:20.936Z,67.20
2017-07-16T14:31:48.514Z,67.30
2017-07-16T14:34:16.106Z,68.60
2017-07-16T14:36:43.687Z,68.80
2017-07-16T14:39:12.062Z,70.50
2017-07-16T14:41:40.395Z,71.40
2017-07-16T14:44:08.003Z,71.30
2017-07-16T14:46:39.159Z,71.40
2017-07-16T14:49:06.752Z,71.20
2017-07-16T14:51:34.363Z,71.60
2017-07-16T14:54:01.937Z,72.30
2017-07-16T14:56:29.541Z,72.70
2017-07-16T14:58:57.156Z,74.10
2017-07-16T15:01:24.723Z,75.00
2017-07-16T15:03:53.099Z,75.10
2017-07-16T15:06:20.663Z,74.90
2017-07-16T15:08:49.159Z,75.50
2017-07-16T15:11:17.436Z,75.40
2017-07-16T15:13:45.046Z,75.10
2017-07-16T15:16:12.689Z,76.20
2017-07-16T15:18:40.265Z,76.90
2017-07-16T15:21:07.862Z,77.60
2017-07-16T15:23:35.438Z,77.20
2017-07-16T15:26:03.014Z,76.20
2017-07-16T15:28:30.614Z,75.50
2017-07-16T15:30:58.216Z,75.10
2017-07-16T15:33:25.812Z,74.70
2017-07-16T15:35:53.409Z,74.80
2017-07-16T15:38:20.982Z,73.70
2017-07-16T15:40:48.566Z,73.10
2017-07-16T15:43:16.199Z,73.50
2017-07-16T15:45:43.795Z,72.30
2017-07-16T15:48:11.414Z,73.30
2017-07-16T15:50:38.995Z,73.20
2017-07-16T15:53:07.362Z,71.30
2017-07-16T15:55:35.031Z,71.10
2017-07-16T15:58:02.602Z,71.00
2017-07-16T16:00:30.211Z,71.30
2017-07-16T16:02:57.800Z,71.20
2017-07-16T16:05:25.406Z,70.40
2017-07-16T16:07:53.012Z,70.60
2017-07-16T16:10:20.597Z,71.00
2017-07-16T16:12:48.183Z,72.00
2017-07-16T16:15:15.795Z,71.40
2017-07-16T16:17:43.418Z,71.20
2017-07-16T16:20:10.995Z,72.20
2017-07-16T16:22:39.394Z,72.00
2017-07-16T16:25:06.996Z,72.50
2017-07-16T16:27:34.591Z,73.00
2017-07-16T16:30:02.193Z,74.60
2017-07-16T16:32:29.778Z,74.80
2017-07-16T16:34:57.361Z,74.80
2017-07-16T16:37:24.955Z,74.40
2017-07-16T16:39:52.522Z,75.20
2017-07-16T16:42:20.144Z,74.30
2017-07-16T16:44:47.763Z,74.20
2017-07-16T16:47:15.403Z,75.10
2017-07-16T16:49:42.960Z,75.20
2017-07-16T16:52:10.527Z,76.80
2017-07-16T16:54:38.134Z,75.60
2017-07-16T16:57:06.538Z,75.70
2017-07-16T16:59:34.746Z,75.60
2017-07-16T17:02:02.310Z,74.70
2017-07-16T17:04:29.917Z,74.10
2017-07-16T17:06:58.267Z,72.50
2017-07-16T17:09:25.885Z,72.50
2017-07-16T17:11:53.511Z,73.30
2017-07-16T17:14:21.116Z,74.50
2017-07-16T17:16:48.750Z,74.20
2017-07-16T17:19:16.355Z,74.60
2017-07-16T17:21:43.935Z,75.00
2017-07-16T17:24:11.526Z,76.20
2017-07-16T17:26:39.908Z,76.00
2017-07-16T17:29:08.252Z,76.40
2017-07-16T17:31:35.840Z,76.30
2017-07-16T17:34:03.446Z,77.20
2017-07-16T17:36:31.010Z,78.00
2017-07-16T17:38:58.629Z,77.50
2017-07-16T17:41:27.095Z,76.80
2017-07-16T17:43:54.695Z,76.70
2017-07-16T17:46:22.290Z,77.40
2017-07-16T17:48:49.862Z,77.20
2017-07-16T17:51:17.422Z,76.90
2017-07-16T17:53:45.085Z,76.70
2017-07-16T17:56:12.683Z,77.20
2017-07-16T17:58:40.302Z,77.30
2017-07-16T18:01:07.903Z,77.90
2017-07-16T18:03:35.672Z,78.50
2017-07-16T18:06:04.005Z,78.50
2017-07-16T18:08:31.576Z,78.50
2017-07-16T18:10:59.264Z,78.50
2017-07-16T18:13:27.604Z,79.10
2017-07-16T18:15:55.207Z,79.90
2017-07-16T18:18:22.779Z,78.90
2017-07-16T18:20:50.394Z,78.80
2017-07-16T18:23:17.990Z,79.10
2017-07-16T18:25:45.625Z,78.90
2017-07-16T18:28:13.224Z,79.60
2017-07-16T18:30:41.569Z,79.40
2017-07-16T18:33:09.153Z,79.30
2017-07-16T18:35:36.855Z,80.30
2017-07-16T18:38:04.443Z,81.40
2017-07-16T18:40:32.975Z,82.00
2017-07-16T18:43:01.322Z,85.80
2017-07-16T18:45:28.935Z,85.70
2017-07-16T18:47:56.709Z,87.30
2017-07-16T18:50:24.283Z,88.60
2017-07-16T18:52:51.862Z,89.70
2017-07-16T18:55:19.467Z,90.70
2017-07-16T18:57:47.830Z,90.80
2017-07-16T19:00:15.505Z,90.80
2017-07-16T19:02:43.860Z,90.80
2017-07-16T19:05:11.470Z,90.70
2017-07-16T19:07:39.137Z,90.90
2017-07-16T19:10:06.762Z,90.90
2017-07-16T19:12:34.335Z,90.80
2017-07-16T19:15:02.707Z,91.10
2017-07-16T19:17:30.317Z,91.00
2017-07-16T19:19:57.911Z,91.30
2017-07-16T19:22:25.530Z,91.40
2017-07-16T19:24:53.096Z,91.20
2017-07-16T19:27:20.697Z,91.40
2017-07-16T19:29:48.279Z,91.50
2017-07-16T19:32:16.730Z,91.60
2017-07-16T19:34:44.300Z,91.60
2017-07-16T19:37:11.864Z,91.70
2017-07-16T19:39:40.248Z,92.20
2017-07-16T19:42:08.711Z,91.60
2017-07-16T19:44:36.317Z,91.90
2017-07-16T19:47:03.993Z,91.90
2017-07-16T19:49:31.629Z,92.00
2017-07-16T19:51:59.206Z,92.00
2017-07-16T19:54:26.829Z,91.80
2017-07-16T19:56:54.452Z,92.20
2017-07-16T19:59:22.075Z,92.10
2017-07-16T20:01:50.427Z,92.20
2017-07-16T20:04:18.012Z,92.50
2017-07-16T20:06:45.594Z,92.40
2017-07-16T20:09:13.188Z,92.30
2017-07-16T20:11:40.836Z,92.20
2017-07-16T20:14:08.437Z,92.30
2017-07-16T20:16:36.017Z,92.30
2017-07-16T20:19:03.659Z,92.20
2017-07-16T20:21:31.215Z,92.40
2017-07-16T20:23:58.799Z,92.70
2017-07-16T20:26:26.339Z,92.70
2017-07-16T20:28:53.915Z,92.80
2017-07-16T20:31:21.492Z,92.60
2017-07-16T20:33:49.125Z,92.90
2017-07-16T20:36:16.724Z,92.60
2017-07-16T20:38:44.329Z,92.50
2017-07-16T20:41:11.966Z,92.80
2017-07-16T20:43:39.582Z,92.80
2017-07-16T20:46:07.188Z,92.80
2017-07-16T20:48:34.803Z,93.00
2017-07-16T20:51:02.367Z,93.10
2017-07-16T20:53:30.721Z,93.40
2017-07-16T20:55:58.333Z,93.30
2017-07-16T20:58:26.020Z,93.50
2017-07-16T21:00:53.628Z,93.20
2017-07-16T21:03:21.277Z,93.70
2017-07-16T21:05:48.878Z,93.30
2017-07-16T21:08:16.470Z,93.30
2017-07-16T21:10:44.063Z,93.30
2017-07-16T21:13:11.628Z,92.90
2017-07-16T21:15:39.238Z,92.90
2017-07-16T21:18:06.857Z,93.10
2017-07-16T21:20:34.439Z,93.10
2017-07-16T21:23:02.110Z,92.90
2017-07-16T21:25:29.713Z,92.90
2017-07-16T21:27:57.470Z,93.00
2017-07-16T21:30:25.080Z,93.10
2017-07-16T21:32:52.686Z,93.10
2017-07-16T21:35:20.259Z,93.10
2017-07-16T21:37:47.841Z,93.20
2017-07-16T21:40:15.453Z,93.30
2017-07-16T21:42:43.022Z,93.10
2017-07-16T21:45:10.632Z,93.20
2017-07-16T21:47:38.242Z,92.90
2017-07-16T21:50:05.811Z,92.80
2017-07-16T21:52:33.538Z,92.80
2017-07-16T21:55:01.892Z,92.70
2017-07-16T21:57:29.467Z,92.70
2017-07-16T21:59:57.063Z,92.60
2017-07-16T22:02:24.633Z,92.50
2017-07-16T22:04:52.207Z,92.70
2017-07-16T22:07:19.793Z,92.50
2017-07-16T22:09:47.405Z,92.60
2017-07-16T22:12:14.983Z,92.60
2017-07-16T22:14:42.607Z,92.50
2017-07-16T22:17:11.084Z,92.40
2017-07-16T22:19:38.639Z,92.70
2017-07-16T22:22:06.230Z,92.70
2017-07-16T22:24:33.824Z,92.60
2017-07-16T22:27:01.366Z,92.60
2017-07-16T22:29:28.951Z,92.70
2017-07-16T22:31:56.591Z,93.00
2017-07-16T22:34:24.158Z,93.10
2017-07-16T22:36:51.745Z,93.30
2017-07-16T22:39:19.431Z,93.10
2017-07-16T22:41:46.996Z,93.00
2017-07-16T22:44:14.569Z,93.10
2017-07-16T22:46:42.151Z,93.30
2017-07-16T22:49:09.748Z,93.00
2017-07-16T22:51:37.323Z,93.10
2017-07-16T22:54:04.890Z,93.20
2017-07-16T22:56:32.505Z,93.30
2017-07-16T22:59:00.074Z,93.30
2017-07-16T23:01:27.655Z,93.60
2017-07-16T23:03:55.244Z,93.30
2017-07-16T23:06:22.802Z,93.30
2017-07-16T23:08:50.391Z,93.30
2017-07-16T23:11:17.959Z,93.30
2017-07-16T23:13:45.579Z,93.20
2017-07-16T23:16:13.159Z,93.30
2017-07-16T23:18:40.723Z,93.30
2017-07-16T23:21:08.306Z,93.60
2017-07-16T23:23:35.870Z,93.70
2017-07-16T23:26:03.463Z,93.40
2017-07-16T23:28:31.039Z,93.20
2017-07-16T23:30:58.626Z,93.80
2017-07-16T23:33:26.203Z,93.90
2017-07-16T23:35:53.784Z,93.40
2017-07-16T23:38:21.359Z,93.60
2017-07-16T23:40:48.951Z,93.80
2017-07-16T23:43:16.511Z,93.60
2017-07-16T23:45:44.103Z,93.50
2017-07-16T23:48:11.955Z,93.30
2017-07-16T23:50:40.287Z,93.50
2017-07-16T23:53:07.893Z,93.40
2017-07-16T23:55:35.544Z,93.50
2017-07-16T23:58:03.127Z,93.60
